sensor_id;sensor_type;location;lat;lon;timestamp;P1;durP1;ratioP1;P2;durP2;ratioP2
53881;SDS011;39794;55.782;37.452;2023-05-07T00:00:01;6.75;;;4.22;;
53881;SDS011;39794;55.782;37.452;2023-05-07T00:02:33;5.80;;;3.65;;
53881;SDS011;39794;55.782;37.452;2023-05-07T00:05:05;5.70;;;3.63;;
53881;SDS011;39794;55.782;37.452;2023-05-07T00:07:35;6.80;;;3.28;;
53881;SDS011;39794;55.782;37.452;2023-05-07T00:10:05;4.50;;;3.28;;
53881;SDS011;39794;55.782;37.452;2023-05-07T00:12:35;4.60;;;3.40;;
53881;SDS011;39794;55.782;37.452;2023-05-07T00:15:03;5.40;;;2.97;;
53881;SDS011;39794;55.782;37.452;2023-05-07T00:17:34;6.93;;;3.92;;
53881;SDS011;39794;55.782;37.452;2023-05-07T00:20:02;7.60;;;3.92;;
53881;SDS011;39794;55.782;37.452;2023-05-07T00:22:33;7.82;;;3.80;;
53881;SDS011;39794;55.782;37.452;2023-05-07T00:25:02;7.43;;;3.88;;
53881;SDS011;39794;55.782;37.452;2023-05-07T00:27:32;7.18;;;4.00;;
53881;SDS011;39794;55.782;37.452;2023-05-07T00:30:00;10.60;;;4.35;;
53881;SDS011;39794;55.782;37.452;2023-05-07T00:32:33;7.28;;;4.10;;
53881;SDS011;39794;55.782;37.452;2023-05-07T00:35:05;5.90;;;3.80;;
53881;SDS011;39794;55.782;37.452;2023-05-07T00:37:35;8.35;;;4.53;;
53881;SDS011;39794;55.782;37.452;2023-05-07T00:40:04;7.13;;;4.35;;
53881;SDS011;39794;55.782;37.452;2023-05-07T00:42:35;6.55;;;4.03;;
53881;SDS011;39794;55.782;37.452;2023-05-07T00:45:04;7.05;;;4.25;;
53881;SDS011;39794;55.782;37.452;2023-05-07T00:47:34;7.85;;;3.92;;
53881;SDS011;39794;55.782;37.452;2023-05-07T00:50:05;6.18;;;4.00;;
53881;SDS011;39794;55.782;37.452;2023-05-07T00:52:36;6.57;;;3.78;;
53881;SDS011;39794;55.782;37.452;2023-05-07T00:55:05;7.97;;;4.10;;
53881;SDS011;39794;55.782;37.452;2023-05-07T00:57:36;6.10;;;3.83;;
53881;SDS011;39794;55.782;37.452;2023-05-07T01:00:07;6.78;;;3.78;;
53881;SDS011;39794;55.782;37.452;2023-05-07T01:02:37;6.93;;;3.70;;
53881;SDS011;39794;55.782;37.452;2023-05-07T01:05:08;9.15;;;4.00;;
53881;SDS011;39794;55.782;37.452;2023-05-07T01:07:40;9.93;;;3.90;;
53881;SDS011;39794;55.782;37.452;2023-05-07T01:10:09;5.13;;;3.72;;
53881;SDS011;39794;55.782;37.452;2023-05-07T01:12:39;6.07;;;3.65;;
53881;SDS011;39794;55.782;37.452;2023-05-07T01:15:09;5.88;;;3.88;;
53881;SDS011;39794;55.782;37.452;2023-05-07T01:17:40;6.43;;;3.25;;
53881;SDS011;39794;55.782;37.452;2023-05-07T01:20:21;7.75;;;4.43;;
53881;SDS011;39794;55.782;37.452;2023-05-07T01:22:54;5.85;;;3.25;;
53881;SDS011;39794;55.782;37.452;2023-05-07T01:25:24;6.20;;;3.58;;
53881;SDS011;39794;55.782;37.452;2023-05-07T01:27:56;6.35;;;3.72;;
53881;SDS011;39794;55.782;37.452;2023-05-07T01:30:28;8.65;;;4.38;;
53881;SDS011;39794;55.782;37.452;2023-05-07T01:32:59;6.18;;;3.92;;
53881;SDS011;39794;55.782;37.452;2023-05-07T01:35:32;2.88;;;2.10;;
53881;SDS011;39794;55.782;37.452;2023-05-07T01:38:05;9.15;;;3.42;;
53881;SDS011;39794;55.782;37.452;2023-05-07T01:40:35;6.35;;;3.65;;
53881;SDS011;39794;55.782;37.452;2023-05-07T01:43:03;5.78;;;3.58;;
53881;SDS011;39794;55.782;37.452;2023-05-07T01:45:34;6.78;;;3.90;;
53881;SDS011;39794;55.782;37.452;2023-05-07T01:48:03;4.93;;;3.28;;
53881;SDS011;39794;55.782;37.452;2023-05-07T01:50:32;5.20;;;3.30;;
53881;SDS011;39794;55.782;37.452;2023-05-07T01:53:01;5.32;;;3.40;;
53881;SDS011;39794;55.782;37.452;2023-05-07T01:55:32;7.05;;;3.72;;
53881;SDS011;39794;55.782;37.452;2023-05-07T01:58:00;5.53;;;3.30;;
53881;SDS011;39794;55.782;37.452;2023-05-07T02:00:29;4.18;;;3.22;;
53881;SDS011;39794;55.782;37.452;2023-05-07T02:02:58;4.25;;;2.90;;
53881;SDS011;39794;55.782;37.452;2023-05-07T02:05:49;7.18;;;3.10;;
53881;SDS011;39794;55.782;37.452;2023-05-07T02:08:33;7.45;;;3.78;;
53881;SDS011;39794;55.782;37.452;2023-05-07T02:11:03;5.93;;;3.40;;
53881;SDS011;39794;55.782;37.452;2023-05-07T02:13:33;4.70;;;3.40;;
53881;SDS011;39794;55.782;37.452;2023-05-07T02:16:04;4.03;;;3.15;;
53881;SDS011;39794;55.782;37.452;2023-05-07T02:18:34;3.90;;;2.70;;
53881;SDS011;39794;55.782;37.452;2023-05-07T02:21:03;6.65;;;2.85;;
53881;SDS011;39794;55.782;37.452;2023-05-07T02:23:31;5.60;;;3.67;;
53881;SDS011;39794;55.782;37.452;2023-05-07T02:26:01;6.28;;;4.07;;
53881;SDS011;39794;55.782;37.452;2023-05-07T02:28:31;4.95;;;3.20;;
53881;SDS011;39794;55.782;37.452;2023-05-07T02:31:04;5.10;;;2.83;;
53881;SDS011;39794;55.782;37.452;2023-05-07T02:33:33;5.30;;;2.92;;
53881;SDS011;39794;55.782;37.452;2023-05-07T02:36:06;4.20;;;2.90;;
53881;SDS011;39794;55.782;37.452;2023-05-07T02:38:44;4.35;;;3.35;;
53881;SDS011;39794;55.782;37.452;2023-05-07T02:41:12;6.13;;;3.83;;
53881;SDS011;39794;55.782;37.452;2023-05-07T02:43:42;5.50;;;3.13;;
53881;SDS011;39794;55.782;37.452;2023-05-07T02:46:11;4.97;;;3.30;;
53881;SDS011;39794;55.782;37.452;2023-05-07T02:48:45;5.60;;;3.35;;
53881;SDS011;39794;55.782;37.452;2023-05-07T02:51:14;6.45;;;3.60;;
53881;SDS011;39794;55.782;37.452;2023-05-07T02:53:43;5.28;;;3.60;;
53881;SDS011;39794;55.782;37.452;2023-05-07T02:56:11;4.88;;;3.20;;
53881;SDS011;39794;55.782;37.452;2023-05-07T02:58:40;6.50;;;3.53;;
53881;SDS011;39794;55.782;37.452;2023-05-07T03:01:11;4.07;;;3.13;;
53881;SDS011;39794;55.782;37.452;2023-05-07T03:03:54;4.43;;;3.00;;
53881;SDS011;39794;55.782;37.452;2023-05-07T03:06:24;5.45;;;3.70;;
53881;SDS011;39794;55.782;37.452;2023-05-07T03:08:53;7.18;;;4.40;;
53881;SDS011;39794;55.782;37.452;2023-05-07T03:11:21;7.38;;;4.30;;
53881;SDS011;39794;55.782;37.452;2023-05-07T03:13:50;6.10;;;3.50;;
53881;SDS011;39794;55.782;37.452;2023-05-07T03:16:21;4.93;;;3.13;;
53881;SDS011;39794;55.782;37.452;2023-05-07T03:18:50;7.43;;;3.60;;
53881;SDS011;39794;55.782;37.452;2023-05-07T03:21:18;5.80;;;3.08;;
53881;SDS011;39794;55.782;37.452;2023-05-07T03:23:47;3.55;;;2.20;;
53881;SDS011;39794;55.782;37.452;2023-05-07T03:26:15;4.60;;;3.00;;
53881;SDS011;39794;55.782;37.452;2023-05-07T03:28:44;3.97;;;2.60;;
53881;SDS011;39794;55.782;37.452;2023-05-07T03:31:15;3.80;;;2.47;;
53881;SDS011;39794;55.782;37.452;2023-05-07T03:33:52;5.40;;;2.75;;
53881;SDS011;39794;55.782;37.452;2023-05-07T03:36:23;3.80;;;3.03;;
53881;SDS011;39794;55.782;37.452;2023-05-07T03:38:56;2.67;;;2.03;;
53881;SDS011;39794;55.782;37.452;2023-05-07T03:41:33;3.70;;;2.67;;
53881;SDS011;39794;55.782;37.452;2023-05-07T03:44:02;4.40;;;2.25;;
53881;SDS011;39794;55.782;37.452;2023-05-07T03:46:31;4.38;;;2.50;;
53881;SDS011;39794;55.782;37.452;2023-05-07T03:49:01;3.40;;;2.45;;
53881;SDS011;39794;55.782;37.452;2023-05-07T03:51:30;4.45;;;2.50;;
53881;SDS011;39794;55.782;37.452;2023-05-07T03:53:59;4.28;;;2.67;;
53881;SDS011;39794;55.782;37.452;2023-05-07T03:56:29;3.50;;;2.58;;
53881;SDS011;39794;55.782;37.452;2023-05-07T03:58:59;4.40;;;2.67;;
53881;SDS011;39794;55.782;37.452;2023-05-07T04:01:28;2.92;;;2.05;;
53881;SDS011;39794;55.782;37.452;2023-05-07T04:03:57;4.25;;;2.30;;
53881;SDS011;39794;55.782;37.452;2023-05-07T04:06:28;4.03;;;2.72;;
53881;SDS011;39794;55.782;37.452;2023-05-07T04:08:59;4.50;;;2.47;;
53881;SDS011;39794;55.782;37.452;2023-05-07T04:11:28;6.68;;;3.05;;
53881;SDS011;39794;55.782;37.452;2023-05-07T04:13:57;4.50;;;3.30;;
53881;SDS011;39794;55.782;37.452;2023-05-07T04:16:28;3.80;;;2.42;;
53881;SDS011;39794;55.782;37.452;2023-05-07T04:18:57;2.83;;;2.00;;
53881;SDS011;39794;55.782;37.452;2023-05-07T04:21:28;3.60;;;2.65;;
53881;SDS011;39794;55.782;37.452;2023-05-07T04:23:58;3.97;;;1.70;;
53881;SDS011;39794;55.782;37.452;2023-05-07T04:26:26;2.45;;;2.00;;
53881;SDS011;39794;55.782;37.452;2023-05-07T04:28:55;4.00;;;2.00;;
53881;SDS011;39794;55.782;37.452;2023-05-07T04:31:28;4.90;;;2.55;;
53881;SDS011;39794;55.782;37.452;2023-05-07T04:33:58;2.20;;;1.90;;
53881;SDS011;39794;55.782;37.452;2023-05-07T04:36:29;2.92;;;2.05;;
53881;SDS011;39794;55.782;37.452;2023-05-07T04:39:03;4.50;;;2.25;;
53881;SDS011;39794;55.782;37.452;2023-05-07T04:41:33;2.90;;;2.08;;
53881;SDS011;39794;55.782;37.452;2023-05-07T04:44:03;3.10;;;2.25;;
53881;SDS011;39794;55.782;37.452;2023-05-07T04:46:33;4.40;;;2.78;;
53881;SDS011;39794;55.782;37.452;2023-05-07T04:49:02;3.08;;;1.83;;
53881;SDS011;39794;55.782;37.452;2023-05-07T04:51:32;3.90;;;2.53;;
53881;SDS011;39794;55.782;37.452;2023-05-07T04:54:00;2.70;;;2.25;;
53881;SDS011;39794;55.782;37.452;2023-05-07T04:56:30;4.15;;;2.08;;
53881;SDS011;39794;55.782;37.452;2023-05-07T04:59:00;2.97;;;1.98;;
53881;SDS011;39794;55.782;37.452;2023-05-07T05:01:29;3.95;;;2.50;;
53881;SDS011;39794;55.782;37.452;2023-05-07T05:03:58;3.50;;;1.90;;
53881;SDS011;39794;55.782;37.452;2023-05-07T05:06:28;2.40;;;2.08;;
53881;SDS011;39794;55.782;37.452;2023-05-07T05:08:59;4.97;;;2.17;;
53881;SDS011;39794;55.782;37.452;2023-05-07T05:11:29;6.10;;;1.70;;
53881;SDS011;39794;55.782;37.452;2023-05-07T05:13:59;2.97;;;1.95;;
53881;SDS011;39794;55.782;37.452;2023-05-07T05:16:28;2.70;;;2.10;;
53881;SDS011;39794;55.782;37.452;2023-05-07T05:18:57;3.78;;;2.30;;
53881;SDS011;39794;55.782;37.452;2023-05-07T05:21:26;5.10;;;3.13;;
53881;SDS011;39794;55.782;37.452;2023-05-07T05:24:01;2.93;;;2.23;;
53881;SDS011;39794;55.782;37.452;2023-05-07T05:26:30;1.42;;;1.33;;
53881;SDS011;39794;55.782;37.452;2023-05-07T05:28:59;2.05;;;1.52;;
53881;SDS011;39794;55.782;37.452;2023-05-07T05:31:29;2.97;;;1.27;;
53881;SDS011;39794;55.782;37.452;2023-05-07T05:33:58;1.55;;;1.20;;
53881;SDS011;39794;55.782;37.452;2023-05-07T05:36:27;1.55;;;1.45;;
53881;SDS011;39794;55.782;37.452;2023-05-07T05:38:57;2.00;;;1.50;;
53881;SDS011;39794;55.782;37.452;2023-05-07T05:41:27;3.67;;;1.35;;
53881;SDS011;39794;55.782;37.452;2023-05-07T05:43:58;1.88;;;1.48;;
53881;SDS011;39794;55.782;37.452;2023-05-07T05:46:27;1.48;;;1.10;;
53881;SDS011;39794;55.782;37.452;2023-05-07T05:48:55;2.10;;;1.35;;
53881;SDS011;39794;55.782;37.452;2023-05-07T05:51:24;1.77;;;1.40;;
53881;SDS011;39794;55.782;37.452;2023-05-07T05:53:54;3.45;;;1.73;;
53881;SDS011;39794;55.782;37.452;2023-05-07T05:56:22;1.50;;;1.38;;
53881;SDS011;39794;55.782;37.452;2023-05-07T05:58:52;1.48;;;1.38;;
53881;SDS011;39794;55.782;37.452;2023-05-07T06:01:21;1.63;;;1.35;;
53881;SDS011;39794;55.782;37.452;2023-05-07T06:03:51;2.15;;;1.35;;
53881;SDS011;39794;55.782;37.452;2023-05-07T06:06:20;1.20;;;1.10;;
53881;SDS011;39794;55.782;37.452;2023-05-07T06:08:49;1.83;;;1.10;;
53881;SDS011;39794;55.782;37.452;2023-05-07T06:11:23;2.80;;;1.30;;
53881;SDS011;39794;55.782;37.452;2023-05-07T06:13:53;1.75;;;1.10;;
53881;SDS011;39794;55.782;37.452;2023-05-07T06:16:24;1.60;;;1.50;;
53881;SDS011;39794;55.782;37.452;2023-05-07T06:18:53;3.30;;;1.33;;
53881;SDS011;39794;55.782;37.452;2023-05-07T06:21:21;1.90;;;1.50;;
53881;SDS011;39794;55.782;37.452;2023-05-07T06:23:50;2.75;;;1.27;;
53881;SDS011;39794;55.782;37.452;2023-05-07T06:26:19;1.88;;;1.20;;
53881;SDS011;39794;55.782;37.452;2023-05-07T06:28:48;2.17;;;1.10;;
53881;SDS011;39794;55.782;37.452;2023-05-07T06:31:18;5.72;;;1.55;;
53881;SDS011;39794;55.782;37.452;2023-05-07T06:33:59;1.42;;;1.33;;
53881;SDS011;39794;55.782;37.452;2023-05-07T06:36:33;2.13;;;1.10;;
53881;SDS011;39794;55.782;37.452;2023-05-07T06:39:17;1.45;;;1.15;;
53881;SDS011;39794;55.782;37.452;2023-05-07T06:41:46;1.30;;;1.20;;
53881;SDS011;39794;55.782;37.452;2023-05-07T06:44:24;1.42;;;1.23;;
53881;SDS011;39794;55.782;37.452;2023-05-07T06:47:07;2.65;;;1.13;;
53881;SDS011;39794;55.782;37.452;2023-05-07T06:49:38;2.97;;;1.40;;
53881;SDS011;39794;55.782;37.452;2023-05-07T06:52:09;1.38;;;1.13;;
53881;SDS011;39794;55.782;37.452;2023-05-07T06:54:37;1.60;;;1.48;;
53881;SDS011;39794;55.782;37.452;2023-05-07T06:57:08;1.42;;;1.30;;
53881;SDS011;39794;55.782;37.452;2023-05-07T06:59:36;1.75;;;1.40;;
53881;SDS011;39794;55.782;37.452;2023-05-07T07:02:06;4.05;;;1.50;;
53881;SDS011;39794;55.782;37.452;2023-05-07T07:04:36;2.05;;;1.48;;
53881;SDS011;39794;55.782;37.452;2023-05-07T07:07:09;1.55;;;1.40;;
53881;SDS011;39794;55.782;37.452;2023-05-07T07:09:42;2.67;;;1.48;;
53881;SDS011;39794;55.782;37.452;2023-05-07T07:12:14;1.75;;;1.33;;
53881;SDS011;39794;55.782;37.452;2023-05-07T07:14:43;3.88;;;1.55;;
53881;SDS011;39794;55.782;37.452;2023-05-07T07:17:13;1.23;;;1.13;;
53881;SDS011;39794;55.782;37.452;2023-05-07T07:19:42;1.50;;;1.13;;
53881;SDS011;39794;55.782;37.452;2023-05-07T07:22:11;1.95;;;1.20;;
53881;SDS011;39794;55.782;37.452;2023-05-07T07:24:39;3.13;;;1.40;;
53881;SDS011;39794;55.782;37.452;2023-05-07T07:27:10;2.05;;;1.60;;
53881;SDS011;39794;55.782;37.452;2023-05-07T07:29:39;3.08;;;1.20;;
53881;SDS011;39794;55.782;37.452;2023-05-07T07:32:07;4.30;;;1.30;;
53881;SDS011;39794;55.782;37.452;2023-05-07T07:34:38;2.97;;;1.40;;
53881;SDS011;39794;55.782;37.452;2023-05-07T07:37:07;2.80;;;1.52;;
53881;SDS011;39794;55.782;37.452;2023-05-07T07:39:36;2.10;;;1.10;;
53881;SDS011;39794;55.782;37.452;2023-05-07T07:42:07;2.55;;;1.00;;
53881;SDS011;39794;55.782;37.452;2023-05-07T07:44:36;1.50;;;0.85;;
53881;SDS011;39794;55.782;37.452;2023-05-07T07:47:08;1.60;;;0.75;;
53881;SDS011;39794;55.782;37.452;2023-05-07T07:49:40;1.00;;;1.00;;
53881;SDS011;39794;55.782;37.452;2023-05-07T07:52:09;1.30;;;0.90;;
53881;SDS011;39794;55.782;37.452;2023-05-07T07:54:38;1.27;;;1.15;;
53881;SDS011;39794;55.782;37.452;2023-05-07T07:57:07;1.27;;;1.17;;
53881;SDS011;39794;55.782;37.452;2023-05-07T07:59:37;2.08;;;1.10;;
53881;SDS011;39794;55.782;37.452;2023-05-07T08:02:08;3.08;;;1.63;;
53881;SDS011;39794;55.782;37.452;2023-05-07T08:04:37;1.42;;;1.33;;
53881;SDS011;39794;55.782;37.452;2023-05-07T08:07:08;1.02;;;0.93;;
53881;SDS011;39794;55.782;37.452;2023-05-07T08:09:40;0.90;;;0.80;;
53881;SDS011;39794;55.782;37.452;2023-05-07T08:12:11;7.75;;;1.27;;
53881;SDS011;39794;55.782;37.452;2023-05-07T08:14:40;1.00;;;0.90;;
53881;SDS011;39794;55.782;37.452;2023-05-07T08:17:09;3.90;;;1.27;;
53881;SDS011;39794;55.782;37.452;2023-05-07T08:19:40;3.58;;;1.17;;
53881;SDS011;39794;55.782;37.452;2023-05-07T08:22:13;2.45;;;1.30;;
53881;SDS011;39794;55.782;37.452;2023-05-07T08:24:42;1.42;;;1.20;;
53881;SDS011;39794;55.782;37.452;2023-05-07T08:27:11;2.20;;;0.90;;
53881;SDS011;39794;55.782;37.452;2023-05-07T08:29:42;0.90;;;0.70;;
53881;SDS011;39794;55.782;37.452;2023-05-07T08:32:15;2.05;;;0.70;;
53881;SDS011;39794;55.782;37.452;2023-05-07T08:34:44;3.13;;;0.90;;
53881;SDS011;39794;55.782;37.452;2023-05-07T08:37:14;3.00;;;1.10;;
53881;SDS011;39794;55.782;37.452;2023-05-07T08:39:44;2.85;;;1.23;;
53881;SDS011;39794;55.782;37.452;2023-05-07T08:42:20;1.58;;;1.40;;
53881;SDS011;39794;55.782;37.452;2023-05-07T08:44:49;3.97;;;1.20;;
53881;SDS011;39794;55.782;37.452;2023-05-07T08:47:21;1.85;;;1.00;;
53881;SDS011;39794;55.782;37.452;2023-05-07T08:49:52;3.58;;;1.10;;
53881;SDS011;39794;55.782;37.452;2023-05-07T08:52:24;1.10;;;0.90;;
53881;SDS011;39794;55.782;37.452;2023-05-07T08:54:53;4.25;;;1.10;;
53881;SDS011;39794;55.782;37.452;2023-05-07T08:57:24;2.03;;;0.82;;
53881;SDS011;39794;55.782;37.452;2023-05-07T08:59:53;1.00;;;0.80;;
53881;SDS011;39794;55.782;37.452;2023-05-07T09:02:21;1.02;;;0.80;;
53881;SDS011;39794;55.782;37.452;2023-05-07T09:04:50;1.05;;;0.70;;
53881;SDS011;39794;55.782;37.452;2023-05-07T09:07:19;1.45;;;1.10;;
53881;SDS011;39794;55.782;37.452;2023-05-07T09:09:50;1.20;;;1.02;;
53881;SDS011;39794;55.782;37.452;2023-05-07T09:12:19;2.00;;;1.00;;
53881;SDS011;39794;55.782;37.452;2023-05-07T09:14:48;1.30;;;1.00;;
53881;SDS011;39794;55.782;37.452;2023-05-07T09:17:17;1.83;;;0.90;;
53881;SDS011;39794;55.782;37.452;2023-05-07T09:19:45;1.45;;;1.10;;
53881;SDS011;39794;55.782;37.452;2023-05-07T09:22:15;3.13;;;1.40;;
53881;SDS011;39794;55.782;37.452;2023-05-07T09:25:00;1.10;;;1.00;;
53881;SDS011;39794;55.782;37.452;2023-05-07T09:27:29;1.15;;;0.85;;
53881;SDS011;39794;55.782;37.452;2023-05-07T09:29:59;1.30;;;1.13;;
53881;SDS011;39794;55.782;37.452;2023-05-07T09:32:32;0.60;;;0.60;;
53881;SDS011;39794;55.782;37.452;2023-05-07T09:35:03;2.45;;;0.80;;
53881;SDS011;39794;55.782;37.452;2023-05-07T09:37:32;1.05;;;0.90;;
53881;SDS011;39794;55.782;37.452;2023-05-07T09:40:02;4.97;;;0.90;;
53881;SDS011;39794;55.782;37.452;2023-05-07T09:42:34;1.88;;;1.10;;
53881;SDS011;39794;55.782;37.452;2023-05-07T09:45:04;3.80;;;0.90;;
53881;SDS011;39794;55.782;37.452;2023-05-07T09:47:36;2.55;;;1.33;;
53881;SDS011;39794;55.782;37.452;2023-05-07T09:50:07;2.80;;;1.00;;
53881;SDS011;39794;55.782;37.452;2023-05-07T09:52:38;1.55;;;1.10;;
53881;SDS011;39794;55.782;37.452;2023-05-07T09:55:10;1.30;;;1.00;;
53881;SDS011;39794;55.782;37.452;2023-05-07T09:57:42;0.82;;;0.75;;
53881;SDS011;39794;55.782;37.452;2023-05-07T10:00:11;1.83;;;1.10;;
53881;SDS011;39794;55.782;37.452;2023-05-07T10:02:48;1.63;;;1.00;;
53881;SDS011;39794;55.782;37.452;2023-05-07T10:05:26;1.48;;;1.20;;
53881;SDS011;39794;55.782;37.452;2023-05-07T10:07:57;1.10;;;1.00;;
53881;SDS011;39794;55.782;37.452;2023-05-07T10:10:32;1.55;;;1.10;;
53881;SDS011;39794;55.782;37.452;2023-05-07T10:13:02;4.80;;;1.00;;
53881;SDS011;39794;55.782;37.452;2023-05-07T10:15:33;2.80;;;1.20;;
53881;SDS011;39794;55.782;37.452;2023-05-07T10:18:04;1.27;;;1.08;;
53881;SDS011;39794;55.782;37.452;2023-05-07T10:20:35;1.17;;;0.85;;
53881;SDS011;39794;55.782;37.452;2023-05-07T10:23:07;1.10;;;1.00;;
53881;SDS011;39794;55.782;37.452;2023-05-07T10:28:19;2.70;;;1.20;;
53881;SDS011;39794;55.782;37.452;2023-05-07T10:30:58;1.92;;;0.90;;
53881;SDS011;39794;55.782;37.452;2023-05-07T10:33:42;4.13;;;0.82;;
53881;SDS011;39794;55.782;37.452;2023-05-07T10:36:14;2.35;;;1.48;;
53881;SDS011;39794;55.782;37.452;2023-05-07T10:38:43;1.00;;;0.70;;
53881;SDS011;39794;55.782;37.452;2023-05-07T10:41:14;1.63;;;1.02;;
53881;SDS011;39794;55.782;37.452;2023-05-07T10:43:44;1.13;;;1.00;;
53881;SDS011;39794;55.782;37.452;2023-05-07T10:46:22;2.13;;;1.00;;
53881;SDS011;39794;55.782;37.452;2023-05-07T10:49:09;1.85;;;1.20;;
53881;SDS011;39794;55.782;37.452;2023-05-07T10:51:44;4.43;;;3.30;;
53881;SDS011;39794;55.782;37.452;2023-05-07T10:54:23;3.85;;;1.10;;
53881;SDS011;39794;55.782;37.452;2023-05-07T11:03:19;1.45;;;1.20;;
53881;SDS011;39794;55.782;37.452;2023-05-07T11:06:11;1.50;;;0.98;;
53881;SDS011;39794;55.782;37.452;2023-05-07T11:08:58;1.27;;;1.13;;
53881;SDS011;39794;55.782;37.452;2023-05-07T11:11:44;2.00;;;1.25;;
53881;SDS011;39794;55.782;37.452;2023-05-07T11:14:45;2.63;;;1.10;;
53881;SDS011;39794;55.782;37.452;2023-05-07T11:17:32;2.00;;;0.85;;
53881;SDS011;39794;55.782;37.452;2023-05-07T11:22:44;1.10;;;1.00;;
53881;SDS011;39794;55.782;37.452;2023-05-07T11:25:18;1.83;;;1.30;;
53881;SDS011;39794;55.782;37.452;2023-05-07T11:30:22;1.38;;;1.10;;
53881;SDS011;39794;55.782;37.452;2023-05-07T11:32:52;1.98;;;0.80;;
53881;SDS011;39794;55.782;37.452;2023-05-07T11:35:22;2.30;;;1.20;;
53881;SDS011;39794;55.782;37.452;2023-05-07T11:37:57;1.17;;;0.73;;
53881;SDS011;39794;55.782;37.452;2023-05-07T11:40:27;4.53;;;1.23;;
53881;SDS011;39794;55.782;37.452;2023-05-07T11:42:56;2.25;;;1.27;;
53881;SDS011;39794;55.782;37.452;2023-05-07T11:45:26;2.22;;;1.30;;
53881;SDS011;39794;55.782;37.452;2023-05-07T11:47:54;4.97;;;2.15;;
53881;SDS011;39794;55.782;37.452;2023-05-07T11:50:23;3.25;;;0.88;;
53881;SDS011;39794;55.782;37.452;2023-05-07T11:52:52;2.08;;;1.15;;
53881;SDS011;39794;55.782;37.452;2023-05-07T11:55:20;2.80;;;1.30;;
53881;SDS011;39794;55.782;37.452;2023-05-07T11:57:50;2.03;;;1.17;;
53881;SDS011;39794;55.782;37.452;2023-05-07T12:00:19;2.15;;;1.50;;
53881;SDS011;39794;55.782;37.452;2023-05-07T12:02:49;3.97;;;1.65;;
53881;SDS011;39794;55.782;37.452;2023-05-07T12:05:18;1.40;;;1.30;;
53881;SDS011;39794;55.782;37.452;2023-05-07T12:07:46;6.90;;;4.07;;
53881;SDS011;39794;55.782;37.452;2023-05-07T12:10:15;4.50;;;2.83;;
53881;SDS011;39794;55.782;37.452;2023-05-07T12:12:45;2.95;;;1.00;;
53881;SDS011;39794;55.782;37.452;2023-05-07T12:15:15;1.50;;;1.00;;
53881;SDS011;39794;55.782;37.452;2023-05-07T12:17:44;1.23;;;0.90;;
53881;SDS011;39794;55.782;37.452;2023-05-07T12:20:14;1.90;;;1.10;;
53881;SDS011;39794;55.782;37.452;2023-05-07T12:22:42;2.08;;;1.48;;
53881;SDS011;39794;55.782;37.452;2023-05-07T12:25:11;2.90;;;1.33;;
53881;SDS011;39794;55.782;37.452;2023-05-07T12:27:41;2.10;;;1.30;;
53881;SDS011;39794;55.782;37.452;2023-05-07T12:30:11;3.03;;;1.90;;
53881;SDS011;39794;55.782;37.452;2023-05-07T12:32:41;2.70;;;1.30;;
53881;SDS011;39794;55.782;37.452;2023-05-07T12:35:11;1.20;;;1.10;;
53881;SDS011;39794;55.782;37.452;2023-05-07T12:37:41;1.50;;;0.98;;
53881;SDS011;39794;55.782;37.452;2023-05-07T12:40:10;2.58;;;1.40;;
53881;SDS011;39794;55.782;37.452;2023-05-07T12:42:40;1.80;;;1.20;;
53881;SDS011;39794;55.782;37.452;2023-05-07T12:45:09;3.58;;;1.20;;
53881;SDS011;39794;55.782;37.452;2023-05-07T12:47:39;2.25;;;1.30;;
53881;SDS011;39794;55.782;37.452;2023-05-07T12:50:07;2.65;;;1.40;;
53881;SDS011;39794;55.782;37.452;2023-05-07T12:52:37;1.38;;;1.20;;
53881;SDS011;39794;55.782;37.452;2023-05-07T12:55:07;2.55;;;1.52;;
53881;SDS011;39794;55.782;37.452;2023-05-07T12:57:37;1.60;;;1.10;;
53881;SDS011;39794;55.782;37.452;2023-05-07T13:00:07;2.80;;;1.33;;
53881;SDS011;39794;55.782;37.452;2023-05-07T13:02:37;2.75;;;1.05;;
53881;SDS011;39794;55.782;37.452;2023-05-07T13:05:07;5.95;;;1.73;;
53881;SDS011;39794;55.782;37.452;2023-05-07T13:07:37;2.25;;;1.20;;
53881;SDS011;39794;55.782;37.452;2023-05-07T13:10:08;3.05;;;1.30;;
53881;SDS011;39794;55.782;37.452;2023-05-07T13:12:37;1.80;;;1.05;;
53881;SDS011;39794;55.782;37.452;2023-05-07T13:15:06;1.23;;;1.10;;
53881;SDS011;39794;55.782;37.452;2023-05-07T13:17:36;2.72;;;1.40;;
53881;SDS011;39794;55.782;37.452;2023-05-07T13:20:05;1.30;;;1.15;;
53881;SDS011;39794;55.782;37.452;2023-05-07T13:22:34;1.20;;;1.10;;
53881;SDS011;39794;55.782;37.452;2023-05-07T13:25:03;1.33;;;1.10;;
53881;SDS011;39794;55.782;37.452;2023-05-07T13:27:34;2.35;;;1.08;;
53881;SDS011;39794;55.782;37.452;2023-05-07T13:30:04;1.30;;;1.20;;
53881;SDS011;39794;55.782;37.452;2023-05-07T13:32:36;2.97;;;1.30;;
53881;SDS011;39794;55.782;37.452;2023-05-07T13:35:05;1.65;;;1.20;;
53881;SDS011;39794;55.782;37.452;2023-05-07T13:37:34;1.60;;;1.25;;
53881;SDS011;39794;55.782;37.452;2023-05-07T13:40:03;2.42;;;1.38;;
53881;SDS011;39794;55.782;37.452;2023-05-07T13:42:34;3.80;;;1.90;;
53881;SDS011;39794;55.782;37.452;2023-05-07T13:45:03;2.53;;;1.52;;
53881;SDS011;39794;55.782;37.452;2023-05-07T13:47:32;5.30;;;1.35;;
53881;SDS011;39794;55.782;37.452;2023-05-07T13:50:01;2.47;;;1.60;;
53881;SDS011;39794;55.782;37.452;2023-05-07T13:52:30;2.67;;;1.30;;
53881;SDS011;39794;55.782;37.452;2023-05-07T13:55:00;2.78;;;1.60;;
53881;SDS011;39794;55.782;37.452;2023-05-07T13:57:30;1.92;;;1.20;;
53881;SDS011;39794;55.782;37.452;2023-05-07T14:00:00;1.27;;;1.10;;
53881;SDS011;39794;55.782;37.452;2023-05-07T14:02:31;3.83;;;1.33;;
53881;SDS011;39794;55.782;37.452;2023-05-07T14:04:59;5.43;;;1.30;;
53881;SDS011;39794;55.782;37.452;2023-05-07T14:07:29;1.85;;;1.60;;
53881;SDS011;39794;55.782;37.452;2023-05-07T14:09:58;1.73;;;1.48;;
53881;SDS011;39794;55.782;37.452;2023-05-07T14:12:31;2.42;;;1.40;;
53881;SDS011;39794;55.782;37.452;2023-05-07T14:15:01;2.90;;;1.42;;
53881;SDS011;39794;55.782;37.452;2023-05-07T14:17:32;1.83;;;1.50;;
53881;SDS011;39794;55.782;37.452;2023-05-07T14:20:00;2.10;;;1.60;;
53881;SDS011;39794;55.782;37.452;2023-05-07T14:22:31;4.50;;;1.30;;
53881;SDS011;39794;55.782;37.452;2023-05-07T14:24:59;1.40;;;1.30;;
53881;SDS011;39794;55.782;37.452;2023-05-07T14:27:33;5.17;;;1.60;;
53881;SDS011;39794;55.782;37.452;2023-05-07T14:30:04;2.55;;;1.30;;
53881;SDS011;39794;55.782;37.452;2023-05-07T14:32:33;3.80;;;1.60;;
53881;SDS011;39794;55.782;37.452;2023-05-07T14:35:05;3.67;;;1.77;;
53881;SDS011;39794;55.782;37.452;2023-05-07T14:37:35;5.00;;;1.40;;
53881;SDS011;39794;55.782;37.452;2023-05-07T14:40:04;2.17;;;1.60;;
53881;SDS011;39794;55.782;37.452;2023-05-07T14:42:34;4.15;;;2.17;;
53881;SDS011;39794;55.782;37.452;2023-05-07T14:45:04;3.60;;;1.58;;
53881;SDS011;39794;55.782;37.452;2023-05-07T14:47:33;1.48;;;1.20;;
53881;SDS011;39794;55.782;37.452;2023-05-07T14:50:02;1.23;;;0.98;;
53881;SDS011;39794;55.782;37.452;2023-05-07T14:52:31;4.40;;;1.40;;
53881;SDS011;39794;55.782;37.452;2023-05-07T14:54:59;2.58;;;1.60;;
53881;SDS011;39794;55.782;37.452;2023-05-07T14:57:30;2.15;;;1.40;;
53881;SDS011;39794;55.782;37.452;2023-05-07T15:00:01;1.40;;;1.20;;
53881;SDS011;39794;55.782;37.452;2023-05-07T15:02:35;2.47;;;1.60;;
53881;SDS011;39794;55.782;37.452;2023-05-07T15:05:04;3.50;;;1.48;;
53881;SDS011;39794;55.782;37.452;2023-05-07T15:07:33;1.70;;;1.30;;